createdAt,value
2022-11-28T00:02:11.992Z,5.95
2022-11-28T00:04:57.400Z,5.99
2022-11-28T00:07:43.012Z,5.97
2022-11-28T00:10:28.100Z,5.99
2022-11-28T00:13:14.315Z,5.99
2022-11-28T00:16:01.443Z,6.19
2022-11-28T00:18:47.179Z,6.20
2022-11-28T00:21:32.969Z,6.18
2022-11-28T00:24:18.040Z,6.04
2022-11-28T00:27:03.457Z,6.05
2022-11-28T00:29:48.510Z,6.06
2022-11-28T00:32:35.933Z,6.09
2022-11-28T00:35:20.915Z,6.08
2022-11-28T00:38:05.820Z,6.06
2022-11-28T00:41:00.623Z,6.13
2022-11-28T00:43:47.450Z,6.17
2022-11-28T00:46:32.299Z,6.13
2022-11-28T00:49:17.327Z,6.17
2022-11-28T00:52:02.139Z,6.23
2022-11-28T00:54:47.106Z,6.23
2022-11-28T00:57:32.087Z,6.24
2022-11-28T01:00:17.500Z,6.27
2022-11-28T01:03:03.509Z,6.25
2022-11-28T01:05:49.095Z,6.17
2022-11-28T01:08:35.063Z,6.09
2022-11-28T01:11:21.590Z,6.15
2022-11-28T01:14:07.877Z,6.26
2022-11-28T01:16:53.049Z,6.20
2022-11-28T01:19:38.158Z,6.15
2022-11-28T01:22:23.568Z,6.11
2022-11-28T01:25:08.600Z,6.14
2022-11-28T01:27:53.459Z,6.13
2022-11-28T01:30:38.539Z,6.09
2022-11-28T01:33:23.768Z,6.16
2022-11-28T01:36:10.860Z,6.14
2022-11-28T01:38:56.033Z,6.16
2022-11-28T01:41:41.551Z,6.05
2022-11-28T01:44:26.716Z,5.95
2022-11-28T01:47:12.319Z,5.94
2022-11-28T01:49:57.707Z,5.96
2022-11-28T01:52:46.316Z,5.98
2022-11-28T01:55:35.127Z,5.94
2022-11-28T01:58:20.237Z,6.06
2022-11-28T02:01:06.941Z,6.09
2022-11-28T02:03:54.141Z,6.10
2022-11-28T02:06:41.174Z,6.11
2022-11-28T02:09:26.343Z,6.06
2022-11-28T02:12:52.679Z,6.07
2022-11-28T02:15:56.331Z,6.10
2022-11-28T02:18:50.925Z,6.06
2022-11-28T02:21:42.364Z,6.01
2022-11-28T02:24:54.750Z,5.94
2022-11-28T02:28:04.675Z,5.93
2022-11-28T02:31:27.010Z,5.97
2022-11-28T02:34:28.139Z,6.05
2022-11-28T02:37:49.289Z,5.99
2022-11-28T02:40:52.366Z,5.94
2022-11-28T02:43:42.501Z,6.01
2022-11-28T02:46:58.096Z,6.05
2022-11-28T02:49:58.384Z,5.97
2022-11-28T02:52:51.391Z,5.97
2022-11-28T02:55:41.224Z,6.04
2022-11-28T02:58:26.696Z,5.98
2022-11-28T03:01:31.340Z,6.00
2022-11-28T03:04:44.370Z,5.99
2022-11-28T03:08:23.667Z,5.92
2022-11-28T03:11:20.410Z,5.89
2022-11-28T03:14:27.207Z,5.94
2022-11-28T03:17:29.016Z,5.93
2022-11-28T03:20:53.822Z,5.83
2022-11-28T03:23:46.286Z,5.88
2022-11-28T03:26:56.872Z,5.70
2022-11-28T03:29:49.496Z,5.62
2022-11-28T03:32:37.752Z,5.47
2022-11-28T03:35:28.317Z,5.34
2022-11-28T03:38:22.059Z,5.50
2022-11-28T03:41:13.396Z,5.33
2022-11-28T03:44:02.181Z,5.53
2022-11-28T03:46:49.272Z,5.34
2022-11-28T03:49:39.309Z,5.31
2022-11-28T03:52:29.862Z,5.45
2022-11-28T03:55:23.582Z,5.48
2022-11-28T03:58:48.621Z,5.48
2022-11-28T04:01:47.860Z,5.51
2022-11-28T04:04:40.651Z,5.46
2022-11-28T04:07:38.615Z,5.37
2022-11-28T04:10:33.754Z,5.37
2022-11-28T04:13:23.927Z,5.34
2022-11-28T04:16:27.622Z,5.33
2022-11-28T04:19:19.563Z,5.29
2022-11-28T04:22:18.092Z,5.30
2022-11-28T04:25:12.412Z,5.33
2022-11-28T04:28:03.003Z,5.31
2022-11-28T04:30:50.114Z,5.21
2022-11-28T04:33:40.041Z,5.16
2022-11-28T04:36:26.729Z,5.22
2022-11-28T04:39:17.062Z,5.23
2022-11-28T04:42:39.832Z,5.34
2022-11-28T04:45:33.882Z,5.39
2022-11-28T04:48:19.764Z,5.41
2022-11-28T04:51:04.720Z,5.38
2022-11-28T04:54:00.945Z,5.44
2022-11-28T04:56:53.146Z,5.40
2022-11-28T04:59:39.532Z,5.40
2022-11-28T05:02:26.267Z,5.42
2022-11-28T05:05:16.382Z,5.38
2022-11-28T05:08:02.611Z,5.40
2022-11-28T05:10:48.237Z,5.46
2022-11-28T05:13:33.679Z,5.47
2022-11-28T05:16:18.733Z,5.57
2022-11-28T05:19:03.937Z,5.63
2022-11-28T05:21:48.914Z,5.68
2022-11-28T05:24:34.180Z,5.69
2022-11-28T05:27:19.138Z,5.78
2022-11-28T05:30:05.172Z,5.75
2022-11-28T05:32:50.605Z,5.81
2022-11-28T05:35:39.649Z,5.71
2022-11-28T05:38:24.444Z,5.88
2022-11-28T05:41:10.505Z,5.80
2022-11-28T05:43:56.612Z,5.72
2022-11-28T05:46:41.688Z,5.73
2022-11-28T05:49:26.719Z,5.79
2022-11-28T05:52:11.622Z,5.79
2022-11-28T05:54:56.493Z,5.76
2022-11-28T05:57:41.415Z,5.67
2022-11-28T06:00:26.753Z,5.65
2022-11-28T06:03:11.896Z,5.67
2022-11-28T06:05:57.319Z,5.64
2022-11-28T06:08:43.569Z,5.65
2022-11-28T06:11:31.010Z,5.74
2022-11-28T06:14:16.233Z,5.77
2022-11-28T06:17:01.235Z,5.81
2022-11-28T06:19:46.747Z,5.76
2022-11-28T06:22:31.672Z,5.71
2022-11-28T06:25:17.334Z,5.70
2022-11-28T06:28:02.449Z,5.74
2022-11-28T06:30:48.000Z,5.78
2022-11-28T06:33:33.270Z,5.75
2022-11-28T06:36:19.204Z,5.82
2022-11-28T06:39:04.664Z,5.87
2022-11-28T06:41:49.611Z,5.91
2022-11-28T06:44:34.737Z,5.79
2022-11-28T06:47:19.778Z,5.73
2022-11-28T06:50:05.230Z,5.77
2022-11-28T06:52:50.299Z,5.82
2022-11-28T06:55:35.770Z,5.81
2022-11-28T06:58:20.775Z,5.85
2022-11-28T07:01:17.609Z,5.76
2022-11-28T07:04:02.923Z,5.81
2022-11-28T07:06:47.917Z,5.81
2022-11-28T07:09:32.851Z,5.73
2022-11-28T07:12:17.955Z,5.67
2022-11-28T07:15:04.317Z,5.78
2022-11-28T07:17:50.088Z,5.74
2022-11-28T07:20:35.460Z,5.79
2022-11-28T07:23:20.244Z,5.75
2022-11-28T07:26:05.671Z,5.73
2022-11-28T07:28:51.861Z,5.74
2022-11-28T07:31:37.387Z,5.82
2022-11-28T07:34:24.552Z,5.75
2022-11-28T07:37:11.345Z,5.73
2022-11-28T07:39:56.692Z,5.73
2022-11-28T07:42:41.948Z,5.69
2022-11-28T07:45:41.917Z,5.78
2022-11-28T07:48:33.262Z,5.85
2022-11-28T07:51:28.533Z,5.94
2022-11-28T07:54:14.057Z,5.88
2022-11-28T07:57:14.634Z,5.87
2022-11-28T07:59:59.925Z,5.80
2022-11-28T08:02:45.403Z,5.72
2022-11-28T08:05:30.331Z,5.76
2022-11-28T08:08:19.622Z,5.61
2022-11-28T08:11:07.545Z,5.71
2022-11-28T08:13:55.048Z,5.79
2022-11-28T08:16:42.993Z,5.75
2022-11-28T08:19:33.831Z,5.75
2022-11-28T08:22:20.590Z,5.72
2022-11-28T08:25:05.808Z,5.64
2022-11-28T08:27:51.264Z,5.67
2022-11-28T08:30:36.085Z,5.63
2022-11-28T08:33:22.620Z,5.66
2022-11-28T08:36:09.652Z,5.65
2022-11-28T08:39:09.787Z,5.62
2022-11-28T08:42:00.239Z,5.69
2022-11-28T08:44:45.682Z,5.74
2022-11-28T08:47:30.576Z,5.80
2022-11-28T08:50:15.796Z,5.87
2022-11-28T08:53:07.822Z,5.84
2022-11-28T08:55:53.283Z,5.88
2022-11-28T08:58:38.651Z,6.00
2022-11-28T09:01:25.981Z,5.91
2022-11-28T09:04:11.418Z,5.86
2022-11-28T09:06:56.816Z,5.90
2022-11-28T09:09:41.879Z,5.97
2022-11-28T09:12:26.745Z,6.03
2022-11-28T09:15:11.716Z,5.99
2022-11-28T09:17:56.746Z,6.14
2022-11-28T09:20:42.150Z,5.98
2022-11-28T09:23:27.109Z,6.07
2022-11-28T09:26:20.229Z,6.04
2022-11-28T09:29:05.572Z,5.95
2022-11-28T09:31:50.418Z,6.14
2022-11-28T09:34:35.300Z,6.16
2022-11-28T09:37:20.181Z,6.24
2022-11-28T09:40:13.193Z,6.04
2022-11-28T09:43:01.523Z,6.03
2022-11-28T09:45:53.065Z,6.01
2022-11-28T09:48:44.867Z,5.96
2022-11-28T09:51:42.173Z,6.00
2022-11-28T09:54:54.030Z,6.03
2022-11-28T09:57:44.008Z,6.11
2022-11-28T10:00:47.239Z,6.14
2022-11-28T10:04:01.024Z,6.22
2022-11-28T10:06:57.344Z,6.34
2022-11-28T10:10:00.251Z,6.15
2022-11-28T10:12:48.367Z,6.38
2022-11-28T10:15:47.451Z,6.43
2022-11-28T10:18:38.464Z,6.25
2022-11-28T10:21:41.542Z,6.34
2022-11-28T10:24:38.322Z,6.38
2022-11-28T10:27:32.878Z,6.37
2022-11-28T10:30:27.520Z,6.44
2022-11-28T10:33:24.267Z,6.43
2022-11-28T10:36:20.167Z,6.50
2022-11-28T10:39:13.136Z,6.48
2022-11-28T10:42:12.619Z,6.38
2022-11-28T10:45:27.003Z,6.16
2022-11-28T10:48:39.710Z,6.27
2022-11-28T10:51:32.454Z,6.47
2022-11-28T10:54:36.605Z,6.48
2022-11-28T10:57:53.413Z,6.35
2022-11-28T11:00:39.730Z,6.48
2022-11-28T11:03:32.170Z,6.43
2022-11-28T11:06:17.693Z,6.48
2022-11-28T11:09:03.225Z,6.54
2022-11-28T11:11:58.331Z,6.53
2022-11-28T11:14:43.864Z,6.28
2022-11-28T11:17:36.592Z,6.36
2022-11-28T11:20:38.183Z,6.45
2022-11-28T11:23:23.567Z,6.32
2022-11-28T11:26:25.050Z,6.27
2022-11-28T11:29:40.728Z,6.25
2022-11-28T11:32:28.722Z,6.36
2022-11-28T11:35:24.272Z,6.34
2022-11-28T11:38:21.734Z,6.49
2022-11-28T11:41:20.802Z,6.50
2022-11-28T11:44:33.888Z,6.62
2022-11-28T11:47:19.461Z,6.76
2022-11-28T11:50:05.730Z,6.74
2022-11-28T11:53:10.868Z,6.75
2022-11-28T11:56:02.160Z,6.83
2022-11-28T11:58:51.951Z,6.71
2022-11-28T12:01:38.803Z,6.56
2022-11-28T12:04:48.923Z,6.54
2022-11-28T12:07:48.339Z,6.53
2022-11-28T12:10:39.801Z,6.50
2022-11-28T12:13:25.043Z,6.55
2022-11-28T12:16:31.825Z,6.51
2022-11-28T12:19:35.910Z,6.48
2022-11-28T12:22:39.406Z,6.42
2022-11-28T12:25:51.323Z,6.45
2022-11-28T12:28:47.458Z,6.34
2022-11-28T12:31:44.602Z,6.42
2022-11-28T12:35:14.507Z,6.47
2022-11-28T12:38:18.083Z,6.50
2022-11-28T12:41:32.817Z,6.43
2022-11-28T12:44:27.536Z,6.57
2022-11-28T12:47:31.051Z,6.55
2022-11-28T12:50:32.769Z,6.57
2022-11-28T12:53:30.099Z,6.55
2022-11-28T12:57:03.948Z,6.58
2022-11-28T13:00:06.991Z,6.60
2022-11-28T13:03:25.622Z,6.62
2022-11-28T13:06:23.874Z,6.70
2022-11-28T13:09:32.833Z,6.57
2022-11-28T13:12:39.547Z,6.61
2022-11-28T13:15:54.336Z,6.76
2022-11-28T13:18:43.427Z,6.82
2022-11-28T13:21:50.655Z,6.87
2022-11-28T13:25:00.335Z,6.91
2022-11-28T13:27:53.505Z,6.86
2022-11-28T13:30:52.607Z,6.97
2022-11-28T13:33:50.510Z,6.91
2022-11-28T13:40:38.185Z,6.91
2022-11-28T13:43:54.644Z,6.95
2022-11-28T13:46:39.741Z,6.85
2022-11-28T13:49:27.279Z,6.91
2022-11-28T13:52:18.416Z,7.01
2022-11-28T13:55:04.000Z,6.94
2022-11-28T13:57:49.305Z,6.91
2022-11-28T14:00:34.691Z,6.98
2022-11-28T14:03:20.716Z,6.77
2022-11-28T14:06:07.251Z,6.77
2022-11-28T14:09:26.574Z,6.66
2022-11-28T14:12:27.454Z,6.75
2022-11-28T14:15:31.618Z,6.68
2022-11-28T14:22:14.561Z,6.61
2022-11-28T14:25:08.404Z,6.65
2022-11-28T14:27:57.248Z,6.57
2022-11-28T14:30:45.386Z,6.51
2022-11-28T14:33:37.898Z,6.53
2022-11-28T14:36:31.473Z,6.32
2022-11-28T14:39:17.040Z,6.45
2022-11-28T14:42:02.444Z,6.49
2022-11-28T14:44:59.097Z,6.48
2022-11-28T14:48:07.463Z,6.47
2022-11-28T14:50:59.330Z,6.44
2022-11-28T14:53:49.001Z,6.42
2022-11-28T14:56:34.375Z,6.43
2022-11-28T14:59:23.953Z,6.40
2022-11-28T15:02:12.335Z,6.45
2022-11-28T15:05:13.218Z,6.49
2022-11-28T15:08:15.707Z,6.33
2022-11-28T15:11:25.638Z,6.47
2022-11-28T15:14:13.841Z,6.42
2022-11-28T15:17:05.560Z,6.39
2022-11-28T15:19:51.467Z,6.34
2022-11-28T15:22:42.113Z,6.37
2022-11-28T15:25:30.588Z,6.35
2022-11-28T15:28:18.647Z,6.36
2022-11-28T15:31:04.533Z,6.38
2022-11-28T15:33:51.115Z,6.35
2022-11-28T15:36:37.698Z,6.29
2022-11-28T15:39:28.192Z,6.33
2022-11-28T15:42:23.849Z,6.16
2022-11-28T15:45:18.131Z,6.12
2022-11-28T15:48:04.195Z,6.03
2022-11-28T15:50:50.733Z,6.02
2022-11-28T15:53:41.348Z,6.11
2022-11-28T15:56:26.954Z,6.05
2022-11-28T15:59:11.870Z,5.98
2022-11-28T16:02:05.492Z,5.94
2022-11-28T16:05:00.605Z,5.98
2022-11-28T16:07:45.885Z,6.06
2022-11-28T16:10:37.848Z,6.05
2022-11-28T16:13:23.568Z,6.05
2022-11-28T16:16:12.516Z,5.95
2022-11-28T16:19:00.258Z,5.98
2022-11-28T16:21:56.533Z,5.96
2022-11-28T16:25:12.441Z,5.98
2022-11-28T16:27:57.504Z,5.91
2022-11-28T16:30:43.593Z,5.96
2022-11-28T16:33:35.694Z,5.97
2022-11-28T16:36:36.372Z,6.01
2022-11-28T16:39:21.578Z,6.04
2022-11-28T16:42:13.489Z,6.03
2022-11-28T16:45:10.764Z,6.07
2022-11-28T16:48:22.412Z,5.99
2022-11-28T16:51:10.761Z,5.98
2022-11-28T16:53:57.107Z,5.91
2022-11-28T16:56:43.554Z,5.85
2022-11-28T16:59:29.098Z,5.97
2022-11-28T17:02:20.522Z,6.13
2022-11-28T17:05:06.026Z,5.94
2022-11-28T17:07:51.343Z,6.07
2022-11-28T17:10:36.586Z,6.13
2022-11-28T17:13:21.500Z,6.07
2022-11-28T17:16:14.735Z,6.05
2022-11-28T17:19:00.073Z,6.00
2022-11-28T17:21:48.758Z,6.06
2022-11-28T17:24:35.754Z,6.06
2022-11-28T17:27:21.230Z,5.99
2022-11-28T17:30:06.919Z,5.95
2022-11-28T17:32:52.229Z,5.94
2022-11-28T17:35:39.964Z,6.02
2022-11-28T17:38:25.373Z,5.85
2022-11-28T17:41:14.530Z,5.94
2022-11-28T17:43:59.691Z,5.83
2022-11-28T17:46:44.709Z,5.92
2022-11-28T17:49:30.223Z,5.93
2022-11-28T17:52:15.826Z,5.94
2022-11-28T17:55:06.371Z,5.91
2022-11-28T17:57:52.396Z,5.94
2022-11-28T18:00:37.713Z,5.93
2022-11-28T18:03:23.207Z,5.98
2022-11-28T18:06:19.866Z,5.93
2022-11-28T18:09:11.661Z,5.96
2022-11-28T18:11:57.754Z,5.97
2022-11-28T18:14:43.091Z,5.91
2022-11-28T18:17:28.467Z,5.98
2022-11-28T18:20:14.124Z,5.91
2022-11-28T18:23:00.434Z,5.93
2022-11-28T18:25:46.058Z,5.97
2022-11-28T18:28:31.086Z,5.93
2022-11-28T18:31:19.060Z,5.98
2022-11-28T18:34:06.812Z,5.94
2022-11-28T18:36:52.155Z,5.93
2022-11-28T18:39:37.141Z,5.90
2022-11-28T18:42:22.337Z,5.97
2022-11-28T18:45:09.429Z,6.06
2022-11-28T18:47:59.925Z,5.96
2022-11-28T18:50:45.827Z,6.03
2022-11-28T18:53:31.944Z,6.06
2022-11-28T18:56:17.315Z,5.94
2022-11-28T18:59:03.062Z,6.06
2022-11-28T19:01:48.484Z,6.14
2022-11-28T19:04:33.480Z,6.21
2022-11-28T19:07:18.568Z,6.06
2022-11-28T19:10:04.245Z,6.17
2022-11-28T19:12:49.499Z,6.04
2022-11-28T19:15:39.000Z,6.02
2022-11-28T19:18:23.819Z,5.98
2022-11-28T19:21:11.499Z,5.96
2022-11-28T19:23:57.445Z,5.89
2022-11-28T19:26:42.657Z,5.97
2022-11-28T19:29:27.814Z,5.99
2022-11-28T19:32:12.694Z,5.97
2022-11-28T19:34:57.566Z,6.11
2022-11-28T19:37:42.513Z,6.07
2022-11-28T19:40:27.536Z,6.00
2022-11-28T19:43:13.108Z,6.04
2022-11-28T19:45:58.552Z,6.02
2022-11-28T19:48:43.910Z,6.01
2022-11-28T19:51:29.010Z,6.05
2022-11-28T19:54:15.130Z,5.96
2022-11-28T19:57:00.274Z,6.01
2022-11-28T19:59:45.640Z,5.94
2022-11-28T20:02:31.511Z,5.82
2022-11-28T20:05:16.723Z,5.85
2022-11-28T20:08:02.208Z,5.83
2022-11-28T20:10:47.566Z,5.82
2022-11-28T20:13:32.907Z,5.82
2022-11-28T20:16:18.401Z,5.91
2022-11-28T20:19:05.134Z,5.87
2022-11-28T20:21:50.404Z,5.79
2022-11-28T20:24:35.624Z,5.95
2022-11-28T20:27:20.766Z,5.90
2022-11-28T20:30:06.545Z,5.92
2022-11-28T20:32:53.421Z,5.91
2022-11-28T20:35:38.696Z,5.94
2022-11-28T20:38:23.574Z,6.07
2022-11-28T20:41:11.524Z,6.14
2022-11-28T20:43:59.318Z,6.04
2022-11-28T20:46:45.064Z,6.04
2022-11-28T20:49:30.139Z,6.07
2022-11-28T20:52:15.311Z,6.03
2022-11-28T20:55:00.475Z,6.04
2022-11-28T20:57:45.461Z,6.10
2022-11-28T21:00:30.513Z,6.03
2022-11-28T21:03:15.620Z,6.07
2022-11-28T21:06:01.472Z,6.03
2022-11-28T21:08:47.420Z,6.03
2022-11-28T21:11:55.676Z,5.98
2022-11-28T21:14:37.824Z,6.15
2022-11-28T21:17:23.155Z,6.14
2022-11-28T21:20:08.896Z,6.12
2022-11-28T21:22:55.202Z,6.05
2022-11-28T21:25:41.957Z,5.97
2022-11-28T21:28:27.004Z,5.95
2022-11-28T21:31:16.164Z,5.97
2022-11-28T21:34:01.431Z,6.09
2022-11-28T21:36:46.735Z,6.05
2022-11-28T21:39:31.841Z,5.92
2022-11-28T21:42:20.493Z,5.94
2022-11-28T21:45:06.557Z,5.88
2022-11-28T21:47:52.039Z,5.92
2022-11-28T21:50:37.621Z,5.94
2022-11-28T21:53:22.494Z,5.96
2022-11-28T21:56:07.475Z,6.08
2022-11-28T21:58:52.946Z,6.11
2022-11-28T22:01:38.186Z,6.22
2022-11-28T22:04:23.226Z,6.19
2022-11-28T22:07:09.099Z,6.18
2022-11-28T22:12:57.740Z,6.09
2022-11-28T22:15:43.017Z,6.21
2022-11-28T22:18:29.387Z,6.20
2022-11-28T22:21:50.071Z,6.01
2022-11-28T22:24:19.741Z,6.01
2022-11-28T22:27:04.641Z,6.01
2022-11-28T22:29:49.574Z,6.01
2022-11-28T22:32:34.849Z,6.09
2022-11-28T22:35:19.588Z,6.00
2022-11-28T22:38:04.609Z,6.13
2022-11-28T22:40:49.628Z,6.02
2022-11-28T22:43:34.815Z,6.25
2022-11-28T22:46:20.101Z,6.27
2022-11-28T22:49:05.302Z,6.28
2022-11-28T22:51:50.106Z,6.19
2022-11-28T22:54:36.615Z,6.26
2022-11-28T22:57:21.554Z,6.12
2022-11-28T23:00:08.814Z,6.06
2022-11-28T23:02:53.940Z,6.04
2022-11-28T23:05:39.511Z,6.04
2022-11-28T23:08:24.853Z,6.07
2022-11-28T23:11:17.116Z,6.09
2022-11-28T23:14:02.963Z,6.15
2022-11-28T23:16:48.352Z,6.20
2022-11-28T23:19:33.823Z,6.13
2022-11-28T23:22:18.878Z,6.16
2022-11-28T23:25:03.976Z,6.08
2022-11-28T23:27:49.140Z,6.13
2022-11-28T23:30:34.789Z,6.13
2022-11-28T23:33:20.148Z,6.25
2022-11-28T23:36:20.154Z,6.36
2022-11-28T23:39:09.491Z,6.40
2022-11-28T23:41:54.571Z,6.34
2022-11-28T23:44:39.966Z,6.31
2022-11-28T23:47:25.176Z,6.32
2022-11-28T23:50:10.300Z,6.29
2022-11-28T23:52:55.353Z,6.24
2022-11-28T23:55:40.494Z,6.35
2022-11-28T23:58:25.795Z,6.40
